Time;durP1;ratioP1;P1;durP2;ratioP2;P2;SDS_P1;SDS_P2;PMS_P1;PMS_P2;Temp;Humidity;BMP_temperature;BMP_pressure;BME280_temperature;BME280_humidity;BME280_pressure;Samples;Min_cycle;Max_cycle;Signal;HPM_P1;HPM_P2
2021/01/19 00:00:38;;;;;;;30.60;16.20;;;26.40;1689.60;;;;;;5112038;28;20019;-61
2021/01/19 00:03:03;;;;;;;32.40;16.77;;;26.30;1689.60;;;;;;5103204;28;20027;-64
2021/01/19 00:05:29;;;;;;;31.58;16.63;;;26.30;1715.20;;;;;;5107906;28;20524;-62
2021/01/19 00:07:55;;;;;;;30.42;16.30;;;26.30;1689.60;;;;;;5104465;28;20020;-62
2021/01/19 00:10:21;;;;;;;33.88;17.42;;;26.30;1689.60;;;;;;5110479;28;20084;-63
2021/01/19 00:12:46;;;;;;;37.60;18.20;;;26.20;1740.80;;;;;;5109297;28;20089;-62
2021/01/19 00:15:12;;;;;;;32.50;17.67;;;26.30;1715.20;;;;;;5111793;28;20032;-62
2021/01/19 00:17:38;;;;;;;34.72;17.27;;;26.30;1689.60;;;;;;5110750;28;20028;-62
2021/01/19 00:20:05;;;;;;;34.35;16.30;;;26.30;1689.60;;;;;;5111844;28;20038;-63
2021/01/19 00:22:32;;;;;;;35.15;16.85;;;26.20;1689.60;;;;;;5107707;28;20024;-63
2021/01/19 00:24:58;;;;;;;32.58;16.00;;;26.20;1715.20;;;;;;5092341;28;20039;-62
2021/01/19 00:27:24;;;;;;;35.00;17.38;;;26.10;1715.20;;;;;;5109378;28;20047;-62
2021/01/19 00:29:50;;;;;;;36.33;17.00;;;26.20;1715.20;;;;;;5113101;28;20415;-63
2021/01/19 00:32:16;;;;;;;34.10;17.05;;;26.20;1715.20;;;;;;5112628;28;20106;-62
2021/01/19 00:34:41;;;;;;;33.17;17.38;;;26.10;1715.20;;;;;;5111596;28;20096;-63
2021/01/19 00:37:07;;;;;;;32.83;16.60;;;26.10;1689.60;;;;;;5103836;28;20474;-62
2021/01/19 00:39:33;;;;;;;27.50;15.52;;;26.10;1715.20;;;;;;5096402;28;20473;-61
2021/01/19 00:41:59;;;;;;;34.85;17.23;;;26.00;1740.80;;;;;;5096219;28;20039;-60
2021/01/19 00:44:24;;;;;;;34.15;16.33;;;26.00;1740.80;;;;;;5110910;28;20020;-61
2021/01/19 00:46:51;;;;;;;32.10;17.00;;;26.10;1715.20;;;;;;5104825;28;20521;-60
2021/01/19 00:49:18;;;;;;;32.78;17.42;;;26.00;1740.80;;;;;;5116758;28;20032;-60
2021/01/19 00:51:43;;;;;;;37.80;17.60;;;26.00;1740.80;;;;;;5116938;28;20122;-61
2021/01/19 00:54:09;;;;;;;35.08;17.23;;;26.00;1740.80;;;;;;5116488;28;20548;-60
2021/01/19 00:56:40;;;;;;;40.13;19.05;;;26.00;1740.80;;;;;;5116349;28;20020;-65
2021/01/19 00:59:06;;;;;;;37.60;17.60;;;26.00;1766.40;;;;;;5116833;28;20030;-61
2021/01/19 01:01:33;;;;;;;37.35;19.05;;;26.00;1766.40;;;;;;5102284;28;20027;-61
2021/01/19 01:03:59;;;;;;;35.00;18.02;;;25.90;1766.40;;;;;;5116453;28;20020;-61
2021/01/19 01:06:25;;;;;;;42.17;20.60;;;25.90;1766.40;;;;;;5116642;28;20122;-61
2021/01/19 01:08:51;;;;;;;44.35;20.52;;;25.90;1792.00;;;;;;5089639;28;20115;-61
2021/01/19 01:11:17;;;;;;;35.03;17.33;;;25.90;1792.00;;;;;;5109744;28;20465;-62
2021/01/19 01:13:44;;;;;;;38.53;20.25;;;25.90;1766.40;;;;;;5116062;28;20051;-62
2021/01/19 01:16:13;;;;;;;39.65;19.13;;;25.90;1766.40;;;;;;5105531;28;20028;-62
2021/01/19 01:18:39;;;;;;;38.92;18.13;;;25.90;1792.00;;;;;;5109964;28;20027;-62
2021/01/19 01:21:09;;;;;;;38.72;18.60;;;26.00;1766.40;;;;;;5102420;28;20447;-62
2021/01/19 01:23:35;;;;;;;39.15;18.63;;;25.90;1766.40;;;;;;5115882;28;20020;-61
2021/01/19 01:26:01;;;;;;;36.15;17.98;;;25.90;1740.80;;;;;;5112110;28;20030;-61
2021/01/19 01:28:26;;;;;;;32.40;17.27;;;25.80;1792.00;;;;;;5101326;28;20024;-62
2021/01/19 01:30:52;;;;;;;41.13;18.70;;;25.70;1792.00;;;;;;5114064;28;20090;-62
2021/01/19 01:33:17;;;;;;;34.65;17.88;;;25.70;1792.00;;;;;;5095613;28;20038;-62
2021/01/19 01:35:43;;;;;;;35.63;18.75;;;25.70;1817.60;;;;;;5095795;28;20036;-61
2021/01/19 01:38:09;;;;;;;37.30;17.10;;;25.70;1817.60;;;;;;5115744;28;20111;-62
2021/01/19 01:40:35;;;;;;;28.77;15.88;;;25.80;1843.20;;;;;;5104068;28;20024;-61
2021/01/19 01:43:13;;;;;;;31.50;17.05;;;25.90;1792.00;;;;;;5095282;28;20380;-62
2021/01/19 01:45:40;;;;;;;34.63;17.08;;;25.90;1792.00;;;;;;5095396;28;20020;-63
2021/01/19 01:48:10;;;;;;;29.38;16.05;;;26.00;1766.40;;;;;;5094080;28;20080;-62
2021/01/19 01:50:38;;;;;;;28.80;15.40;;;26.00;1740.80;;;;;;5105593;28;20049;-61
2021/01/19 01:53:05;;;;;;;29.05;15.73;;;26.00;1766.40;;;;;;5115424;28;20150;-61
2021/01/19 01:55:31;;;;;;;34.05;16.08;;;26.00;1766.40;;;;;;5096779;28;20377;-61
2021/01/19 01:57:59;;;;;;;30.30;16.02;;;26.10;1766.40;;;;;;5100988;28;20020;-63
2021/01/19 02:00:25;;;;;;;;;;;26.00;1766.40;;;;;;5081686;28;20036;-62
2021/01/19 02:02:55;;;;;;;30.88;17.00;;;26.00;1766.40;;;;;;5094667;28;19904;-62
2021/01/19 02:05:25;;;;;;;36.90;16.48;;;26.00;1792.00;;;;;;5108106;28;20036;-63
2021/01/19 02:08:12;;;;;;;34.25;16.85;;;26.10;1766.40;;;;;;5113718;28;20028;-62
2021/01/19 02:11:12;;;;;;;36.80;17.40;;;26.10;1766.40;;;;;;5108459;28;20346;-64
2021/01/19 02:14:05;;;;;;;33.50;15.82;;;26.10;1792.00;;;;;;4995583;28;20073;-63
2021/01/19 02:17:07;;;;;;;36.42;17.15;;;26.10;1792.00;;;;;;4986100;28;20042;-62
2021/01/19 02:20:10;;;;;;;29.98;16.05;;;26.10;1792.00;;;;;;4920633;29;20050;-61
2021/01/19 02:22:56;;;;;;;33.10;16.80;;;26.10;1766.40;;;;;;4916837;29;20039;-60
2021/01/19 02:25:40;;;;;;;32.92;18.25;;;26.00;1792.00;;;;;;4921803;29;20095;-61
2021/01/19 02:28:29;;;;;;;36.20;18.02;;;25.90;1792.00;;;;;;4919837;29;20028;-61
2021/01/19 02:31:09;;;;;;;36.88;18.70;;;25.80;1792.00;;;;;;4929971;29;20094;-61
2021/01/19 02:33:47;;;;;;;33.63;16.10;;;25.80;1817.60;;;;;;4915651;29;20471;-61
2021/01/19 02:36:26;;;;;;;34.95;16.42;;;25.80;1792.00;;;;;;4915886;29;20048;-61
2021/01/19 02:38:58;;;;;;;34.67;18.63;;;25.80;1792.00;;;;;;4926842;29;20581;-62
2021/01/19 02:41:25;;;;;;;41.35;19.48;;;25.90;1817.60;;;;;;4932313;29;20048;-62
2021/01/19 02:44:09;;;;;;;32.15;17.65;;;25.90;1817.60;;;;;;4933712;29;20036;-63
2021/01/19 02:46:35;;;;;;;32.95;17.10;;;25.90;1817.60;;;;;;4911647;29;20020;-61
2021/01/19 02:49:01;;;;;;;35.65;17.42;;;26.00;1792.00;;;;;;4928383;29;20103;-61
2021/01/19 02:51:27;;;;;;;37.42;18.25;;;26.00;1792.00;;;;;;4985032;28;20523;-62
2021/01/19 02:53:54;;;;;;;33.42;17.63;;;26.00;1792.00;;;;;;4997228;28;20476;-61
2021/01/19 02:56:52;;;;;;;37.78;17.73;;;26.10;1792.00;;;;;;5053122;28;20060;-61
2021/01/19 02:59:43;;;;;;;31.73;16.57;;;26.00;1792.00;;;;;;5071680;28;20044;-62
2021/01/19 03:02:19;;;;;;;35.95;18.05;;;26.10;1792.00;;;;;;5093243;28;20103;-62
2021/01/19 03:04:47;;;;;;;33.75;17.42;;;26.10;1792.00;;;;;;5093744;28;20048;-61
2021/01/19 03:07:13;;;;;;;34.47;17.48;;;26.20;1792.00;;;;;;5093672;28;20028;-61
2021/01/19 03:09:40;;;;;;;37.35;17.90;;;26.20;1792.00;;;;;;5074966;28;20428;-61
2021/01/19 03:12:12;;;;;;;38.05;18.48;;;26.20;1817.60;;;;;;5074986;28;20043;-61
2021/01/19 03:14:39;;;;;;;34.22;17.27;;;26.20;1817.60;;;;;;5093926;28;20428;-61
2021/01/19 03:17:11;;;;;;;32.63;17.48;;;26.30;1792.00;;;;;;5093137;28;20073;-61
2021/01/19 03:19:42;;;;;;;39.00;19.02;;;26.30;1817.60;;;;;;5100812;28;20090;-61
2021/01/19 03:22:10;;;;;;;41.63;19.70;;;26.30;1817.60;;;;;;5074039;28;20039;-62
2021/01/19 03:24:39;;;;;;;36.08;18.40;;;26.30;1843.20;;;;;;5078355;28;20019;-61
2021/01/19 03:27:06;;;;;;;35.08;18.20;;;26.30;1817.60;;;;;;5113762;28;20028;-61
2021/01/19 03:29:32;;;;;;;36.40;18.40;;;26.30;1817.60;;;;;;5101190;28;20047;-61
2021/01/19 03:31:57;;;;;;;35.70;17.92;;;26.20;1843.20;;;;;;5104545;28;20070;-61
2021/01/19 03:34:23;;;;;;;34.15;18.48;;;26.20;1843.20;;;;;;5113841;28;20373;-61
2021/01/19 03:36:49;;;;;;;34.60;17.35;;;26.10;1868.80;;;;;;5113733;28;20024;-61
2021/01/19 03:39:14;;;;;;;36.53;18.35;;;26.20;1868.80;;;;;;5098721;28;20089;-61
2021/01/19 03:41:40;;;;;;;39.38;19.90;;;26.10;1868.80;;;;;;5113318;28;20063;-61
2021/01/19 03:44:06;;;;;;;39.90;17.95;;;26.20;1868.80;;;;;;5113400;28;20020;-61
2021/01/19 03:46:32;;;;;;;37.28;17.92;;;26.20;1868.80;;;;;;5113380;28;20378;-62
2021/01/19 03:48:58;;;;;;;34.50;17.70;;;26.30;1868.80;;;;;;5095277;28;20027;-62
2021/01/19 03:51:24;;;;;;;32.58;17.55;;;26.40;1868.80;;;;;;5112985;28;20102;-62
2021/01/19 03:53:51;;;;;;;32.05;17.35;;;26.40;1868.80;;;;;;5113150;28;20479;-62
2021/01/19 03:56:16;;;;;;;41.80;18.20;;;26.30;1868.80;;;;;;5098092;28;20397;-62
2021/01/19 03:58:42;;;;;;;36.83;17.67;;;26.30;1868.80;;;;;;5112978;28;20016;-62
2021/01/19 04:01:08;;;;;;;33.30;17.50;;;26.30;1894.40;;;;;;5113229;28;20028;-62
2021/01/19 04:03:33;;;;;;;35.25;17.58;;;26.40;1868.80;;;;;;5113024;28;20020;-61
2021/01/19 04:05:59;;;;;;;31.45;17.10;;;26.30;1894.40;;;;;;5094606;28;20428;-62
2021/01/19 04:08:25;;;;;;;36.67;18.38;;;26.40;1868.80;;;;;;5112973;28;20023;-62
2021/01/19 04:10:51;;;;;;;37.80;18.00;;;26.40;1894.40;;;;;;5112695;28;20023;-62
2021/01/19 04:13:19;;;;;;;36.42;18.50;;;26.40;1868.80;;;;;;5112701;28;20481;-62
2021/01/19 04:15:47;;;;;;;37.53;18.05;;;26.40;1868.80;;;;;;5113132;28;20028;-62
2021/01/19 04:18:13;;;;;;;36.83;19.20;;;26.40;1894.40;;;;;;5112741;28;20028;-62
2021/01/19 04:20:39;;;;;;;33.13;16.23;;;26.40;1868.80;;;;;;5112936;28;20046;-62
2021/01/19 04:23:05;;;;;;;34.13;16.92;;;26.40;1868.80;;;;;;5094674;28;20028;-63
2021/01/19 04:25:31;;;;;;;30.77;17.00;;;26.50;1868.80;;;;;;5112954;28;20470;-62
2021/01/19 04:27:57;;;;;;;31.15;17.77;;;51.20;1894.40;;;;;;5112500;28;20020;-62
2021/01/19 04:30:23;;;;;;;35.83;19.42;;;26.50;1868.80;;;;;;5098509;28;20035;-62
2021/01/19 04:32:49;;;;;;;36.90;17.88;;;51.20;1894.40;;;;;;5112746;28;20122;-62
2021/01/19 04:35:15;;;;;;;39.20;17.52;;;51.20;1920.00;;;;;;5094879;28;20031;-62
2021/01/19 04:37:41;;;;;;;36.50;17.42;;;51.20;1894.40;;;;;;5112469;28;20454;-62
2021/01/19 04:40:08;;;;;;;35.58;18.60;;;51.30;1894.40;;;;;;5113185;28;20034;-62
2021/01/19 04:42:36;;;;;;;31.20;17.45;;;51.30;1920.00;;;;;;5112439;28;20061;-61
2021/01/19 04:45:06;;;;;;;31.95;16.33;;;51.50;1868.80;;;;;;5112713;28;20024;-62
2021/01/19 04:47:33;;;;;;;30.13;16.60;;;51.40;1868.80;;;;;;5112458;28;20089;-62
2021/01/19 04:50:04;;;;;;;37.97;18.55;;;51.40;1894.40;;;;;;5112982;28;20477;-62
2021/01/19 04:52:32;;;;;;;32.90;18.08;;;51.50;1868.80;;;;;;5112474;28;20047;-62
2021/01/19 04:55:11;;;;;;;32.17;16.10;;;51.50;1843.20;;;;;;5112746;28;20027;-62
2021/01/19 04:57:40;;;;;;;;;;;51.60;1843.20;;;;;;5112581;28;20488;-62
2021/01/19 05:00:13;;;;;;;33.42;16.35;;;51.60;1843.20;;;;;;5112731;28;20061;-62
2021/01/19 05:03:20;;;;;;;33.80;18.05;;;51.50;1843.20;;;;;;5112445;28;20057;-63
2021/01/19 05:05:59;;;;;;;32.65;17.45;;;51.60;1843.20;;;;;;5084108;28;20113;-62
2021/01/19 05:08:27;;;;;;;34.67;17.75;;;51.50;1843.20;;;;;;5111862;28;20113;-62
2021/01/19 05:10:58;;;;;;;34.78;18.33;;;51.50;1868.80;;;;;;5112719;28;20035;-62
2021/01/19 05:13:46;;;;;;;33.67;19.55;;;51.50;1868.80;;;;;;5112560;28;20016;-61
2021/01/19 05:16:18;;;;;;;31.65;16.80;;;51.50;1868.80;;;;;;5112614;28;20027;-60
2021/01/19 05:18:45;;;;;;;34.63;19.20;;;51.50;1843.20;;;;;;5084176;28;20015;-61
2021/01/19 05:21:11;;;;;;;34.60;17.17;;;51.40;1843.20;;;;;;5112683;28;20059;-61
2021/01/19 05:23:36;;;;;;;32.25;17.55;;;51.30;1868.80;;;;;;5115347;28;20019;-61
2021/01/19 05:26:04;;;;;;;31.90;17.45;;;51.20;1868.80;;;;;;5114523;28;20034;-61
2021/01/19 05:28:35;;;;;;;34.05;17.15;;;51.30;1868.80;;;;;;5098899;28;20470;-61
2021/01/19 05:31:05;;;;;;;31.85;19.23;;;51.30;1868.80;;;;;;5101854;28;20346;-63
2021/01/19 05:33:31;;;;;;;33.00;17.52;;;51.30;1868.80;;;;;;5115773;28;20458;-63
2021/01/19 05:36:10;;;;;;;29.60;16.95;;;51.30;1843.20;;;;;;5115855;28;20030;-66
2021/01/19 05:38:48;;;;;;;35.92;18.20;;;51.30;1843.20;;;;;;5115940;28;20493;-63
2021/01/19 05:41:45;;;;;;;48.10;20.65;;;51.40;1868.80;;;;;;5111417;28;20089;-63
2021/01/19 05:44:16;;;;;;;35.47;18.52;;;51.40;1868.80;;;;;;5023910;28;20141;-63
2021/01/19 05:46:52;;;;;;;34.88;17.92;;;51.50;1868.80;;;;;;5018979;28;20033;-63
2021/01/19 05:49:21;;;;;;;34.75;19.65;;;51.40;1868.80;;;;;;5032213;28;20108;-63
2021/01/19 05:51:49;;;;;;;44.72;21.15;;;51.50;1868.80;;;;;;5019919;28;20125;-63
2021/01/19 05:54:26;;;;;;;40.83;21.48;;;51.60;1843.20;;;;;;5032952;28;20026;-63
2021/01/19 05:57:10;;;;;;;47.65;22.52;;;51.60;1843.20;;;;;;5019821;28;20017;-63
2021/01/19 05:59:44;;;;;;;54.88;23.83;;;51.50;1868.80;;;;;;5002107;28;20045;-63
2021/01/19 06:02:13;;;;;;;41.90;22.35;;;51.60;1843.20;;;;;;5032376;28;20479;-63
2021/01/19 06:04:42;;;;;;;46.58;22.33;;;51.60;1843.20;;;;;;5032446;28;20128;-63
2021/01/19 06:07:10;;;;;;;41.55;21.83;;;51.60;1868.80;;;;;;5032497;28;20537;-63
2021/01/19 06:09:37;;;;;;;50.90;25.92;;;51.70;1843.20;;;;;;5019418;28;20598;-63
2021/01/19 06:12:04;;;;;;;51.10;28.15;;;51.60;1843.20;;;;;;5017770;28;20113;-63
2021/01/19 06:14:31;;;;;;;48.20;26.58;;;51.60;1817.60;;;;;;5032568;28;20037;-63
2021/01/19 06:17:10;;;;;;;48.92;27.30;;;51.50;1843.20;;;;;;5018039;28;20033;-64
2021/01/19 06:19:36;;;;;;;50.40;28.60;;;51.50;1868.80;;;;;;5041469;28;20021;-63
2021/01/19 06:22:07;;;;;;;56.70;31.40;;;51.60;1843.20;;;;;;5112694;28;20081;-63
2021/01/19 06:24:37;;;;;;;48.85;25.48;;;51.70;1868.80;;;;;;5107955;28;20489;-64
2021/01/19 06:27:04;;;;;;;45.55;28.27;;;51.60;1843.20;;;;;;5111251;28;20301;-64
2021/01/19 06:29:31;;;;;;;38.63;21.33;;;51.60;1868.80;;;;;;5107493;28;20020;-63
2021/01/19 06:32:02;;;;;;;42.78;26.55;;;51.50;1868.80;;;;;;5111908;28;20046;-64
2021/01/19 06:34:34;;;;;;;43.20;24.30;;;51.40;1894.40;;;;;;5108777;28;20030;-63
2021/01/19 06:37:00;;;;;;;39.30;22.08;;;51.40;1894.40;;;;;;5112927;28;20020;-63
2021/01/19 06:39:36;;;;;;;41.67;23.50;;;51.50;1920.00;;;;;;5108883;28;20072;-63
2021/01/19 06:42:04;;;;;;;48.88;27.10;;;51.50;1920.00;;;;;;5104966;28;20027;-63
2021/01/19 06:44:37;;;;;;;46.25;25.67;;;51.50;1894.40;;;;;;5111029;28;20020;-63
2021/01/19 06:47:04;;;;;;;50.33;28.20;;;51.50;1894.40;;;;;;5111034;28;20093;-63
2021/01/19 06:49:38;;;;;;;54.80;31.35;;;51.50;1945.60;;;;;;5103282;28;20023;-63
2021/01/19 06:52:06;;;;;;;62.03;32.05;;;51.60;1894.40;;;;;;5102935;28;20415;-62
2021/01/19 06:55:05;;;;;;;77.20;38.72;;;51.70;1894.40;;;;;;5094035;28;20032;-63
2021/01/19 06:57:47;;;;;;;50.67;27.50;;;51.70;1920.00;;;;;;5093372;28;20048;-65
2021/01/19 07:00:19;;;;;;;59.47;31.55;;;51.80;1894.40;;;;;;5081919;28;20072;-64
2021/01/19 07:02:50;;;;;;;51.05;29.52;;;51.90;1894.40;;;;;;5099362;28;20020;-65
2021/01/19 07:05:17;;;;;;;58.70;35.85;;;52.00;1894.40;;;;;;5094856;28;20052;-64
2021/01/19 07:07:45;;;;;;;44.40;27.13;;;52.10;1894.40;;;;;;5100319;28;20384;-65
2021/01/19 07:10:31;;;;;;;40.42;22.90;;;52.10;1868.80;;;;;;5099025;28;20102;-68
2021/01/19 07:12:58;;;;;;;40.70;21.13;;;52.00;1894.40;;;;;;5093962;28;20420;-63
2021/01/19 07:15:48;;;;;;;37.53;21.70;;;52.00;1894.40;;;;;;5095774;28;20039;-62
2021/01/19 07:18:22;;;;;;;38.70;21.65;;;52.10;1920.00;;;;;;5097783;28;20040;-60
2021/01/19 07:21:05;;;;;;;34.33;18.80;;;52.00;1920.00;;;;;;5093222;28;20032;-60
2021/01/19 07:23:46;;;;;;;34.83;20.63;;;52.10;1920.00;;;;;;5092967;28;20373;-62
2021/01/19 07:26:18;;;;;;;36.95;19.98;;;52.10;1920.00;;;;;;5092881;28;20113;-62
2021/01/19 07:28:45;;;;;;;35.50;19.10;;;76.80;1945.60;;;;;;5093097;28;20034;-60
2021/01/19 07:31:12;;;;;;;35.70;19.70;;;76.80;1920.00;;;;;;5092998;28;20458;-63
2021/01/19 07:33:43;;;;;;;39.72;21.42;;;76.90;1920.00;;;;;;5093036;28;20024;-62
2021/01/19 07:36:17;;;;;;;36.55;19.55;;;76.90;1920.00;;;;;;5093002;28;20032;-62
2021/01/19 07:38:43;;;;;;;45.15;27.33;;;76.90;1920.00;;;;;;5093133;28;20379;-61
2021/01/19 07:41:09;;;;;;;51.50;27.08;;;76.90;1920.00;;;;;;5092624;28;20043;-61
2021/01/19 07:43:36;;;;;;;54.45;28.63;;;76.90;1920.00;;;;;;5092407;28;20020;-61
2021/01/19 07:46:03;;;;;;;52.42;27.35;;;77.00;1920.00;;;;;;5086835;28;20024;-64
2021/01/19 07:48:34;;;;;;;62.13;29.33;;;77.00;1920.00;;;;;;5092949;28;20020;-60
2021/01/19 07:51:12;;;;;;;61.47;30.83;;;77.10;1920.00;;;;;;5093227;28;20020;-62
2021/01/19 07:53:53;;;;;;;55.08;28.08;;;77.10;1894.40;;;;;;5092957;28;20031;-61
2021/01/19 07:56:28;;;;;;;54.92;31.92;;;77.30;1894.40;;;;;;5092626;28;20024;-63
2021/01/19 07:58:55;;;;;;;44.25;23.98;;;77.40;1868.80;;;;;;5092622;28;20016;-60
2021/01/19 08:01:30;;;;;;;48.67;24.02;;;77.50;1894.40;;;;;;5093200;28;20024;-61
2021/01/19 08:04:11;;;;;;;38.47;21.30;;;77.60;1868.80;;;;;;5092421;28;20050;-59
2021/01/19 08:06:38;;;;;;;41.47;22.08;;;77.70;1843.20;;;;;;5080079;28;20035;-61
2021/01/19 08:09:14;;;;;;;38.92;22.10;;;77.70;1817.60;;;;;;5093531;28;20032;-60
2021/01/19 08:11:44;;;;;;;41.60;23.70;;;102.40;1817.60;;;;;;5106596;28;20017;-61
2021/01/19 08:14:10;;;;;;;43.88;23.92;;;102.50;1843.20;;;;;;5092435;28;20028;-61
2021/01/19 08:16:40;;;;;;;32.15;19.17;;;102.60;1792.00;;;;;;5092719;28;20434;-60
2021/01/19 08:19:13;;;;;;;42.47;22.73;;;102.60;1766.40;;;;;;5092331;28;20059;-59
2021/01/19 08:21:50;;;;;;;36.42;22.65;;;102.80;1792.00;;;;;;5098825;28;20453;-58
2021/01/19 08:24:18;;;;;;;35.47;20.33;;;103.00;1740.80;;;;;;5104899;28;20102;-58
2021/01/19 08:26:47;;;;;;;37.65;19.95;;;102.90;1715.20;;;;;;5096639;28;20024;-57
2021/01/19 08:29:12;;;;;;;30.02;18.05;;;103.00;1715.20;;;;;;5092409;28;20028;-58
2021/01/19 08:31:38;;;;;;;28.80;16.75;;;103.00;1715.20;;;;;;5092306;28;20020;-58
2021/01/19 08:34:06;;;;;;;28.70;16.35;;;103.10;1689.60;;;;;;5092113;28;20032;-58
2021/01/19 08:36:33;;;;;;;32.90;20.63;;;103.20;1689.60;;;;;;5092500;28;20052;-58
2021/01/19 08:39:00;;;;;;;32.67;18.38;;;103.20;1689.60;;;;;;5092443;28;20032;-58
2021/01/19 08:41:27;;;;;;;33.17;18.50;;;103.20;1689.60;;;;;;5092194;28;20042;-60
2021/01/19 08:44:00;;;;;;;29.98;18.42;;;103.20;1689.60;;;;;;5094463;28;20020;-58
2021/01/19 08:46:28;;;;;;;32.63;20.50;;;103.20;1689.60;;;;;;5093078;28;20031;-61
2021/01/19 08:49:01;;;;;;;31.85;19.73;;;128.00;1689.60;;;;;;5095436;28;20035;-66
2021/01/19 08:51:27;;;;;;;31.77;19.33;;;128.20;1689.60;;;;;;5092141;28;20107;-62
2021/01/19 08:53:54;;;;;;;33.25;19.73;;;128.40;1664.00;;;;;;5094439;28;20383;-60
2021/01/19 08:56:25;;;;;;;34.30;18.92;;;128.60;1664.00;;;;;;5094030;28;20035;-60
2021/01/19 08:58:51;;;;;;;31.98;19.42;;;128.80;1638.40;;;;;;5095957;28;20016;-60
2021/01/19 09:01:18;;;;;;;31.63;17.20;;;128.80;1612.80;;;;;;5096417;28;20042;-58
2021/01/19 09:04:01;;;;;;;29.95;18.48;;;128.80;1638.40;;;;;;5096202;28;20038;-59
2021/01/19 09:06:27;;;;;;;34.58;19.52;;;153.60;1638.40;;;;;;5096065;28;20028;-58
2021/01/19 09:09:01;;;;;;;27.95;16.77;;;153.70;1638.40;;;;;;5095945;28;20028;-58
2021/01/19 09:11:30;;;;;;;27.98;17.27;;;128.90;1664.00;;;;;;5094633;28;20039;-58
2021/01/19 09:14:03;;;;;;;29.02;17.08;;;128.80;1664.00;;;;;;5095892;28;20087;-60
2021/01/19 09:16:30;;;;;;;27.17;16.17;;;128.90;1664.00;;;;;;5095811;28;20493;-58
2021/01/19 09:18:57;;;;;;;26.65;16.40;;;153.70;1638.40;;;;;;5096152;28;20103;-57
2021/01/19 09:21:24;;;;;;;27.23;18.00;;;153.90;1612.80;;;;;;5094429;28;20036;-58
2021/01/19 09:23:50;;;;;;;30.85;17.40;;;153.90;1612.80;;;;;;5095656;28;20089;-58
2021/01/19 09:26:16;;;;;;;30.88;16.85;;;154.00;1587.20;;;;;;5108190;28;20469;-58
2021/01/19 09:28:41;;;;;;;25.52;15.68;;;154.10;1561.60;;;;;;5114809;28;20041;-59
2021/01/19 09:31:12;;;;;;;31.27;18.27;;;154.00;1587.20;;;;;;5109901;28;20020;-59
2021/01/19 09:33:39;;;;;;;26.80;17.40;;;154.10;1587.20;;;;;;5098584;28;20449;-57
2021/01/19 09:36:07;;;;;;;30.17;17.90;;;154.30;1561.60;;;;;;5106366;28;20047;-57
2021/01/19 09:38:34;;;;;;;26.25;17.77;;;154.50;1561.60;;;;;;5095104;28;20021;-58
2021/01/19 09:41:00;;;;;;;29.27;17.27;;;154.50;1536.00;;;;;;5077348;28;20032;-58
2021/01/19 09:43:26;;;;;;;33.30;17.85;;;154.50;1536.00;;;;;;5108758;28;20043;-57
2021/01/19 09:46:03;;;;;;;28.40;17.58;;;179.40;1510.40;;;;;;5095669;28;20016;-58
2021/01/19 09:48:31;;;;;;;32.30;17.77;;;179.40;1510.40;;;;;;5095273;28;20024;-58
2021/01/19 09:51:05;;;;;;;34.05;18.30;;;179.70;1510.40;;;;;;5109412;28;20558;-58
2021/01/19 09:53:33;;;;;;;33.35;18.88;;;180.10;1433.60;;;;;;5095169;28;20099;-57
2021/01/19 09:56:14;;;;;;;29.65;17.63;;;204.90;1408.00;;;;;;5094886;28;20027;-57
2021/01/19 09:58:39;;;;;;;29.80;17.17;;;205.10;1408.00;;;;;;5095038;28;20047;-58
2021/01/19 10:01:05;;;;;;;25.63;16.85;;;205.20;1382.40;;;;;;5106328;28;20457;-57
2021/01/19 10:03:33;;;;;;;27.67;16.80;;;205.20;1356.80;;;;;;5094649;28;20024;-58
2021/01/19 10:06:08;;;;;;;29.92;17.77;;;205.20;1356.80;;;;;;5094742;28;20493;-58
2021/01/19 10:08:37;;;;;;;26.80;17.35;;;205.20;1356.80;;;;;;5094140;28;20016;-57
2021/01/19 10:11:03;;;;;;;;;;;205.20;1356.80;;;;;;5094939;28;20031;-58
2021/01/19 10:13:30;;;;;;;32.65;17.45;;;205.20;1356.80;;;;;;5095008;28;19904;-57
2021/01/19 10:16:03;;;;;;;29.27;19.42;;;205.10;1356.80;;;;;;5094633;28;20030;-58
2021/01/19 10:18:31;;;;;;;30.98;20.77;;;205.00;1356.80;;;;;;5094444;28;20028;-58
2021/01/19 10:20:57;;;;;;;31.77;20.13;;;205.00;1382.40;;;;;;5094400;28;20040;-58
2021/01/19 10:23:33;;;;;;;35.67;22.52;;;204.80;1408.00;;;;;;5094606;28;20103;-59
2021/01/19 10:26:10;;;;;;;34.30;22.20;;;204.80;1408.00;;;;;;5094691;28;20024;-57
2021/01/19 10:28:44;;;;;;;35.20;22.40;;;204.80;1433.60;;;;;;5094276;28;20031;-59
2021/01/19 10:31:14;;;;;;;38.88;22.48;;;204.80;1433.60;;;;;;5094120;28;20020;-58
2021/01/19 10:33:56;;;;;;;35.75;23.67;;;204.80;1433.60;;;;;;5094258;28;20462;-58
2021/01/19 10:36:22;;;;;;;36.15;22.80;;;204.80;1433.60;;;;;;5094271;28;20050;-57
2021/01/19 10:38:48;;;;;;;40.90;22.80;;;180.10;1433.60;;;;;;5094422;28;20027;-58
2021/01/19 10:41:26;;;;;;;33.28;21.58;;;180.00;1433.60;;;;;;5094403;28;20040;-59
2021/01/19 10:43:53;;;;;;;34.00;21.98;;;179.90;1459.20;;;;;;5083337;28;20050;-57
2021/01/19 10:46:24;;;;;;;37.53;22.90;;;179.80;1459.20;;;;;;5114501;28;20457;-59
2021/01/19 10:49:04;;;;;;;36.15;21.02;;;179.60;1484.80;;;;;;5110904;28;20073;-57
2021/01/19 10:51:30;;;;;;;27.15;16.05;;;179.50;1510.40;;;;;;5094565;28;20106;-59
2021/01/19 10:54:03;;;;;;;30.42;15.85;;;179.40;1459.20;;;;;;5109134;28;20026;-59
2021/01/19 10:56:29;;;;;;;24.35;13.68;;;179.50;1484.80;;;;;;5094737;28;20101;-62
2021/01/19 10:58:54;;;;;;;28.75;15.38;;;179.60;1459.20;;;;;;5094462;28;20465;-60
2021/01/19 11:01:20;;;;;;;22.35;13.27;;;179.50;1484.80;;;;;;5103064;28;20035;-59
2021/01/19 11:03:46;;;;;;;26.63;15.65;;;179.50;1484.80;;;;;;5099315;28;20017;-59
2021/01/19 11:06:11;;;;;;;31.92;18.27;;;179.50;1484.80;;;;;;5094052;28;20405;-59
2021/01/19 11:08:37;;;;;;;29.13;15.75;;;179.60;1484.80;;;;;;5093419;28;20486;-59
2021/01/19 11:11:03;;;;;;;31.58;17.52;;;179.40;1484.80;;;;;;5092742;28;20024;-59
2021/01/19 11:13:29;;;;;;;31.80;17.25;;;179.40;1536.00;;;;;;5092702;28;20181;-59
2021/01/19 11:15:54;;;;;;;30.58;15.98;;;179.50;1510.40;;;;;;5094626;28;20088;-59
2021/01/19 11:18:20;;;;;;;32.88;16.23;;;179.50;1484.80;;;;;;5112638;28;20065;-61
2021/01/19 11:20:46;;;;;;;32.95;16.50;;;179.60;1484.80;;;;;;5109354;28;20032;-60
2021/01/19 11:23:12;;;;;;;41.30;18.38;;;179.60;1510.40;;;;;;5106294;28;20016;-61
2021/01/19 11:25:37;;;;;;;34.97;16.60;;;179.60;1484.80;;;;;;5110453;28;20055;-61
2021/01/19 11:28:03;;;;;;;28.45;14.63;;;179.70;1459.20;;;;;;5110734;28;20035;-61
2021/01/19 11:30:29;;;;;;;32.67;16.27;;;179.60;1484.80;;;;;;5111380;28;20024;-60
2021/01/19 11:32:55;;;;;;;29.20;14.68;;;179.70;1484.80;;;;;;5112015;28;20047;-61
2021/01/19 11:35:20;;;;;;;23.48;13.63;;;179.60;1510.40;;;;;;5105289;28;20032;-61
2021/01/19 11:37:46;;;;;;;22.35;12.93;;;179.70;1484.80;;;;;;5093017;28;20028;-62
2021/01/19 11:40:12;;;;;;;18.40;10.20;;;179.70;1459.20;;;;;;5092920;28;20032;-62
2021/01/19 11:42:38;;;;;;;26.15;14.75;;;179.80;1459.20;;;;;;5104094;28;20031;-62
2021/01/19 11:45:04;;;;;;;24.42;14.77;;;179.80;1536.00;;;;;;5096945;28;20028;-61
2021/01/19 11:47:30;;;;;;;29.13;16.48;;;179.90;1510.40;;;;;;5093797;28;20032;-61
2021/01/19 11:49:56;;;;;;;24.58;14.70;;;179.90;1459.20;;;;;;5098708;28;20023;-62
2021/01/19 11:52:21;;;;;;;27.80;14.25;;;180.00;1433.60;;;;;;5107126;28;20077;-64
2021/01/19 11:54:48;;;;;;;22.45;13.00;;;180.10;1433.60;;;;;;5086630;28;20020;-64
2021/01/19 11:57:17;;;;;;;27.55;15.40;;;180.00;1433.60;;;;;;5080836;28;20115;-64
2021/01/19 11:59:42;;;;;;;;;;;180.00;1433.60;;;;;;5093639;28;20046;-66
2021/01/19 12:02:08;;;;;;;26.35;13.55;;;180.10;1433.60;;;;;;5107371;28;20356;-73
2021/01/19 12:04:34;;;;;;;22.15;12.80;;;204.80;1459.20;;;;;;5104414;28;20043;-69
2021/01/19 12:07:01;;;;;;;17.77;11.82;;;204.80;1433.60;;;;;;5109724;28;20031;-69
2021/01/19 12:09:27;;;;;;;19.20;12.13;;;204.80;1408.00;;;;;;5094620;28;20031;-72
2021/01/19 12:11:54;;;;;;;21.95;13.75;;;204.90;1433.60;;;;;;5106330;28;20019;-80
2021/01/19 12:14:21;;;;;;;23.05;13.95;;;204.90;1408.00;;;;;;5103532;28;20425;-70
2021/01/19 12:16:50;;;;;;;22.65;14.32;;;204.90;1408.00;;;;;;5108329;28;20019;-72
2021/01/19 12:19:16;;;;;;;24.02;13.00;;;204.90;1433.60;;;;;;5103258;28;20035;-68